Time;durP1;ratioP1;P1;durP2;ratioP2;P2;SDS_P1;SDS_P2;PMS_P1;PMS_P2;Temp;Humidity;BMP_temperature;BMP_pressure;BME280_temperature;BME280_humidity;BME280_pressure;Samples;Min_cycle;Max_cycle;Signal;HPM_P1;HPM_P2
2023/09/17 00:00:21;;;;;;;5.10;2.13;;;18.10;99.90;;;;;;5090539;28;20035;-84
2023/09/17 00:02:47;;;;;;;9.55;1.67;;;18.10;99.90;;;;;;5091815;28;20048;-84
2023/09/17 00:05:12;;;;;;;3.92;1.95;;;18.20;99.90;;;;;;5091260;28;20057;-85
2023/09/17 00:07:39;;;;;;;2.28;1.67;;;18.20;99.90;;;;;;5091702;28;20036;-83
2023/09/17 00:10:05;;;;;;;4.45;2.10;;;18.20;99.90;;;;;;5090006;28;20464;-84
2023/09/17 00:12:31;;;;;;;2.65;1.63;;;18.20;99.90;;;;;;5089923;28;20020;-84
2023/09/17 00:14:57;;;;;;;3.28;1.83;;;18.30;99.90;;;;;;5091434;28;20166;-85
2023/09/17 00:17:23;;;;;;;1.95;1.50;;;18.30;99.90;;;;;;5089962;28;20059;-86
2023/09/17 00:19:48;;;;;;;3.67;1.50;;;18.30;99.90;;;;;;5091148;28;20024;-85
2023/09/17 00:22:14;;;;;;;2.90;2.00;;;18.30;99.90;;;;;;5091458;28;20137;-85
2023/09/17 00:24:43;;;;;;;4.35;2.85;;;18.30;99.90;;;;;;5090921;28;20588;-83
2023/09/17 00:27:09;;;;;;;2.97;1.80;;;18.30;99.90;;;;;;5091027;28;20040;-85
2023/09/17 00:29:35;;;;;;;2.50;1.75;;;18.40;99.90;;;;;;5090888;28;20039;-85
2023/09/17 00:32:00;;;;;;;1.90;1.50;;;18.40;99.90;;;;;;5090912;28;20493;-85
2023/09/17 00:34:26;;;;;;;8.32;2.08;;;18.40;99.90;;;;;;5091113;28;20025;-85
2023/09/17 00:36:52;;;;;;;2.42;1.80;;;18.40;99.90;;;;;;5089544;28;20164;-84
2023/09/17 00:39:18;;;;;;;4.18;1.40;;;18.40;99.90;;;;;;5089405;28;20041;-83
2023/09/17 00:41:43;;;;;;;2.83;2.08;;;18.40;99.90;;;;;;5089612;28;20510;-85
2023/09/17 00:44:09;;;;;;;2.78;1.80;;;18.40;99.90;;;;;;5089668;28;20449;-84
2023/09/17 00:46:36;;;;;;;3.70;2.10;;;18.40;99.90;;;;;;5089615;28;20032;-84
2023/09/17 00:49:02;;;;;;;3.45;1.70;;;18.50;99.90;;;;;;5089437;28;20516;-86
2023/09/17 00:51:28;;;;;;;3.85;1.90;;;18.40;99.90;;;;;;5089214;28;20028;-84
2023/09/17 00:53:56;;;;;;;4.38;2.03;;;18.40;99.90;;;;;;5090961;28;20089;-86
2023/09/17 00:56:23;;;;;;;3.50;1.77;;;18.40;99.90;;;;;;5089196;28;20062;-84
2023/09/17 00:58:50;;;;;;;10.88;1.50;;;18.50;99.90;;;;;;5089218;28;20557;-85
2023/09/17 01:01:16;;;;;;;4.28;2.15;;;18.50;99.90;;;;;;5089116;28;20059;-84
2023/09/17 01:03:42;;;;;;;3.00;1.90;;;18.50;99.90;;;;;;5089325;28;20056;-85
2023/09/17 01:06:11;;;;;;;3.72;1.95;;;18.50;99.90;;;;;;5089086;28;20523;-84
2023/09/17 01:08:39;;;;;;;4.25;1.98;;;18.50;99.90;;;;;;5090128;28;20032;-85
2023/09/17 01:11:07;;;;;;;2.95;1.58;;;18.40;99.90;;;;;;5089152;28;20050;-86
2023/09/17 01:13:38;;;;;;;2.90;1.88;;;18.40;99.90;;;;;;5089345;28;20035;-85
2023/09/17 01:16:05;;;;;;;2.38;1.95;;;18.30;99.90;;;;;;5089916;28;20103;-86
2023/09/17 01:18:32;;;;;;;3.13;1.85;;;18.20;99.90;;;;;;5089975;28;20089;-84
2023/09/17 01:21:36;;;;;;;2.25;1.80;;;18.10;99.90;;;;;;5088758;28;20020;-86
2023/09/17 01:24:14;;;;;;;3.10;2.15;;;18.10;99.90;;;;;;5088914;28;20038;-85
2023/09/17 01:26:43;;;;;;;4.75;2.10;;;17.90;99.90;;;;;;5088615;28;20024;-86
2023/09/17 01:29:13;;;;;;;2.97;2.00;;;17.80;99.90;;;;;;5089682;28;20111;-86
2023/09/17 01:31:39;;;;;;;2.58;2.10;;;17.70;99.90;;;;;;5088735;28;20039;-85
2023/09/17 01:34:04;;;;;;;3.50;1.90;;;17.70;99.90;;;;;;5089879;28;20028;-86
2023/09/17 01:36:39;;;;;;;3.33;1.92;;;17.60;99.90;;;;;;5088852;28;20121;-85
2023/09/17 01:39:13;;;;;;;3.33;2.17;;;17.50;99.90;;;;;;5088509;28;20135;-86
2023/09/17 01:41:41;;;;;;;3.08;2.10;;;17.50;99.90;;;;;;5088735;28;20085;-84
2023/09/17 01:44:07;;;;;;;2.67;2.20;;;17.40;99.90;;;;;;5088856;28;20028;-84
2023/09/17 01:46:35;;;;;;;4.95;2.10;;;17.40;99.90;;;;;;5089792;28;20103;-85
2023/09/17 01:49:02;;;;;;;3.53;2.08;;;17.30;99.90;;;;;;5089471;28;20578;-86
2023/09/17 01:51:31;;;;;;;2.75;1.88;;;17.30;99.90;;;;;;5089380;28;20462;-86
2023/09/17 01:53:57;;;;;;;3.53;1.75;;;17.30;99.90;;;;;;5088661;28;20509;-86
2023/09/17 01:56:23;;;;;;;2.60;2.10;;;17.30;99.90;;;;;;5088533;28;20069;-84
2023/09/17 01:58:49;;;;;;;5.22;2.20;;;17.30;99.90;;;;;;5089464;28;20040;-85
2023/09/17 02:01:15;;;;;;;5.38;2.30;;;17.30;99.90;;;;;;5089370;28;20028;-85
2023/09/17 02:03:40;;;;;;;5.32;2.50;;;17.20;99.90;;;;;;5089447;28;20476;-86
2023/09/17 02:06:06;;;;;;;3.15;2.28;;;17.20;99.90;;;;;;5089863;28;20020;-84
2023/09/17 02:08:32;;;;;;;7.45;2.30;;;17.20;99.90;;;;;;5089264;28;20131;-86
2023/09/17 02:10:57;;;;;;;3.92;2.17;;;17.10;99.90;;;;;;5089475;28;20035;-86
2023/09/17 02:13:23;;;;;;;3.47;2.10;;;17.10;99.90;;;;;;5089591;28;20426;-85
2023/09/17 02:15:49;;;;;;;8.68;1.85;;;17.10;99.90;;;;;;5089165;28;20428;-85
2023/09/17 02:18:15;;;;;;;3.78;2.40;;;17.10;99.90;;;;;;5088377;28;20044;-88
2023/09/17 02:20:42;;;;;;;3.05;1.92;;;17.10;99.90;;;;;;5088336;28;20089;-84
2023/09/17 02:23:10;;;;;;;3.80;2.00;;;17.10;99.90;;;;;;5089498;28;20427;-86
2023/09/17 02:25:36;;;;;;;3.50;2.53;;;17.00;99.90;;;;;;5088475;28;20059;-84
2023/09/17 02:28:02;;;;;;;3.42;2.13;;;17.00;99.90;;;;;;5088923;28;20071;-86
2023/09/17 02:30:28;;;;;;;2.45;2.00;;;17.00;99.90;;;;;;5087888;28;20127;-87
2023/09/17 02:32:54;;;;;;;3.97;1.80;;;17.00;99.90;;;;;;5089417;28;20020;-84
2023/09/17 02:35:19;;;;;;;5.30;1.85;;;17.10;99.90;;;;;;5089176;28;20062;-84
2023/09/17 02:37:45;;;;;;;4.00;2.80;;;17.10;99.90;;;;;;5089132;28;20118;-87
2023/09/17 02:40:11;;;;;;;4.38;2.20;;;17.00;99.90;;;;;;5088185;28;20111;-86
2023/09/17 02:42:41;;;;;;;7.18;2.17;;;17.00;99.90;;;;;;5089273;28;20116;-86
2023/09/17 02:45:08;;;;;;;4.28;2.00;;;17.00;99.90;;;;;;5088335;28;20059;-84
2023/09/17 02:47:34;;;;;;;2.95;1.90;;;17.00;99.90;;;;;;5089158;28;20432;-87
2023/09/17 02:50:00;;;;;;;2.42;2.20;;;17.00;99.90;;;;;;5088986;28;20016;-85
2023/09/17 02:52:26;;;;;;;5.03;2.10;;;16.90;99.90;;;;;;5089400;28;20063;-87
2023/09/17 02:54:54;;;;;;;5.75;2.30;;;16.90;99.90;;;;;;5089224;28;20020;-86
2023/09/17 02:57:19;;;;;;;3.95;2.20;;;16.90;99.90;;;;;;5089257;28;20034;-85
2023/09/17 02:59:46;;;;;;;6.80;2.22;;;16.90;99.90;;;;;;5087929;28;20036;-87
2023/09/17 03:02:11;;;;;;;2.65;2.00;;;16.90;99.90;;;;;;5088053;28;20032;-86
2023/09/17 03:04:37;;;;;;;2.92;2.35;;;16.90;99.90;;;;;;5092090;28;20039;-84
2023/09/17 03:07:04;;;;;;;3.55;1.95;;;16.90;99.90;;;;;;5092405;28;20020;-85
2023/09/17 03:09:30;;;;;;;4.72;1.92;;;16.90;99.90;;;;;;5092005;28;20088;-86
2023/09/17 03:11:56;;;;;;;2.88;2.03;;;16.90;99.90;;;;;;5092882;28;20055;-85
2023/09/17 03:14:22;;;;;;;3.80;2.08;;;16.90;99.90;;;;;;5093094;28;20081;-86
2023/09/17 03:16:48;;;;;;;4.53;2.08;;;17.00;99.90;;;;;;5092000;28;20047;-86
2023/09/17 03:19:14;;;;;;;3.90;2.10;;;17.00;99.90;;;;;;5092993;28;20081;-86
2023/09/17 03:21:43;;;;;;;5.22;2.13;;;17.00;99.90;;;;;;5092912;28;20028;-86
2023/09/17 03:24:09;;;;;;;2.67;1.90;;;17.00;99.90;;;;;;5091424;28;20112;-83
2023/09/17 03:26:36;;;;;;;2.58;1.80;;;17.00;99.90;;;;;;5091681;28;20116;-86
2023/09/17 03:29:03;;;;;;;6.03;1.65;;;17.00;99.90;;;;;;5091557;28;20119;-86
2023/09/17 03:31:28;;;;;;;5.53;1.70;;;17.00;99.90;;;;;;5091840;28;20404;-86
2023/09/17 03:33:55;;;;;;;4.95;2.15;;;17.00;99.90;;;;;;5093083;28;20020;-86
2023/09/17 03:36:20;;;;;;;3.88;1.92;;;16.90;99.90;;;;;;5092951;28;20032;-85
2023/09/17 03:38:46;;;;;;;2.60;1.77;;;16.80;99.90;;;;;;5092002;28;20040;-85
2023/09/17 03:41:12;;;;;;;4.22;2.33;;;16.80;99.90;;;;;;5091093;28;20027;-88
2023/09/17 03:43:38;;;;;;;4.55;1.80;;;16.80;99.90;;;;;;5092742;28;20074;-85
2023/09/17 03:46:04;;;;;;;2.95;2.00;;;16.80;99.90;;;;;;5090973;28;20024;-84
2023/09/17 03:48:33;;;;;;;3.50;1.88;;;16.80;99.90;;;;;;5090767;28;20035;-87
2023/09/17 03:51:04;;;;;;;3.28;1.92;;;16.80;99.90;;;;;;5090192;28;20024;-86
2023/09/17 03:53:30;;;;;;;11.52;2.67;;;16.80;99.90;;;;;;5092155;28;20028;-84
2023/09/17 03:55:56;;;;;;;4.70;2.17;;;16.80;99.90;;;;;;5092195;28;20020;-86
2023/09/17 03:58:21;;;;;;;4.10;2.08;;;16.80;99.90;;;;;;5092100;28;20040;-88
2023/09/17 04:00:48;;;;;;;2.90;2.17;;;16.80;99.90;;;;;;5092019;28;20035;-85
2023/09/17 04:03:18;;;;;;;7.15;2.08;;;16.80;99.90;;;;;;5092159;28;20020;-87
2023/09/17 04:05:45;;;;;;;4.97;2.40;;;16.80;99.90;;;;;;5091510;28;20081;-86
2023/09/17 04:08:11;;;;;;;2.65;1.80;;;16.80;99.90;;;;;;5092545;28;20036;-85
2023/09/17 04:10:36;;;;;;;4.43;2.50;;;16.80;99.90;;;;;;5091434;28;20031;-86
2023/09/17 04:13:02;;;;;;;4.93;2.08;;;16.80;99.90;;;;;;5091829;28;20032;-85
2023/09/17 04:15:28;;;;;;;3.42;2.17;;;16.80;99.90;;;;;;5091212;28;20047;-85
2023/09/17 04:17:54;;;;;;;4.28;2.30;;;16.70;99.90;;;;;;5091610;28;20036;-85
2023/09/17 04:20:20;;;;;;;4.22;2.28;;;16.70;99.90;;;;;;5090556;28;20059;-86
2023/09/17 04:22:48;;;;;;;6.13;2.13;;;16.70;99.90;;;;;;5091488;28;20024;-86
2023/09/17 04:25:16;;;;;;;2.88;1.70;;;16.60;99.90;;;;;;5091748;28;20103;-87
2023/09/17 04:27:43;;;;;;;3.08;2.08;;;16.60;99.90;;;;;;5091506;28;20099;-87
2023/09/17 04:30:13;;;;;;;2.95;2.03;;;16.60;99.90;;;;;;5089936;28;20460;-85
2023/09/17 04:32:42;;;;;;;5.68;1.85;;;16.60;99.90;;;;;;5090148;28;20016;-85
2023/09/17 04:35:12;;;;;;;2.95;2.10;;;16.70;99.90;;;;;;5091233;28;20040;-86
2023/09/17 04:37:39;;;;;;;8.32;2.28;;;16.70;99.90;;;;;;5090139;28;20538;-87
2023/09/17 04:40:11;;;;;;;3.85;2.13;;;16.70;99.90;;;;;;5090118;28;20024;-85
2023/09/17 04:42:43;;;;;;;3.85;2.10;;;16.70;99.90;;;;;;5089960;28;20027;-86
2023/09/17 04:45:09;;;;;;;4.80;2.50;;;16.70;99.90;;;;;;5090935;28;20046;-86
2023/09/17 04:47:36;;;;;;;4.50;2.65;;;16.70;99.90;;;;;;5090740;28;20081;-84
2023/09/17 04:50:08;;;;;;;5.30;2.97;;;16.70;99.90;;;;;;5090927;28;20434;-85
2023/09/17 04:52:34;;;;;;;4.80;2.67;;;16.70;99.90;;;;;;5090771;28;20032;-87
2023/09/17 04:55:00;;;;;;;4.57;2.97;;;16.60;99.90;;;;;;5089388;28;20024;-85
2023/09/17 04:57:26;;;;;;;3.08;2.22;;;16.70;99.90;;;;;;5089594;28;20044;-88
2023/09/17 04:59:51;;;;;;;4.18;2.63;;;16.60;99.90;;;;;;5089877;28;20067;-85
2023/09/17 05:02:17;;;;;;;7.80;3.15;;;16.70;99.90;;;;;;5084867;28;20583;-85
2023/09/17 05:04:43;;;;;;;3.47;1.98;;;16.60;99.90;;;;;;5069859;28;20119;-85
2023/09/17 05:07:08;;;;;;;6.70;2.53;;;16.60;99.90;;;;;;5070125;28;20110;-86
2023/09/17 05:09:34;;;;;;;8.93;2.90;;;16.60;99.90;;;;;;5071171;28;20025;-86
2023/09/17 05:12:00;;;;;;;5.07;2.42;;;16.70;99.90;;;;;;5070636;28;20025;-85
2023/09/17 05:14:26;;;;;;;4.03;1.88;;;16.70;99.90;;;;;;5069679;28;20039;-85
2023/09/17 05:16:52;;;;;;;7.50;2.50;;;16.70;99.90;;;;;;5068876;28;20055;-84
2023/09/17 05:19:17;;;;;;;4.60;2.55;;;16.80;99.90;;;;;;5085581;28;20063;-85
2023/09/17 05:21:43;;;;;;;5.03;2.50;;;16.80;99.90;;;;;;5068544;28;20029;-84
2023/09/17 05:24:09;;;;;;;6.50;1.92;;;16.80;99.90;;;;;;5070314;28;20025;-86
2023/09/17 05:26:34;;;;;;;5.03;2.15;;;16.90;99.90;;;;;;5068518;28;20123;-84
2023/09/17 05:29:00;;;;;;;4.88;2.97;;;17.10;99.90;;;;;;5068992;28;20115;-84
2023/09/17 05:31:26;;;;;;;3.75;1.90;;;17.30;99.90;;;;;;5070540;28;20071;-84
2023/09/17 05:33:53;;;;;;;4.20;2.20;;;17.70;99.90;;;;;;5070217;28;20032;-82
2023/09/17 05:36:18;;;;;;;2.72;1.77;;;18.10;99.90;;;;;;5072762;28;20503;-81
2023/09/17 05:38:44;;;;;;;3.38;2.03;;;18.50;99.90;;;;;;5076122;28;20028;-80
2023/09/17 05:41:12;;;;;;;2.45;1.52;;;18.90;99.90;;;;;;5089939;28;20051;-83
2023/09/17 05:43:38;;;;;;;3.10;1.90;;;19.20;99.90;;;;;;5088559;28;20032;-84
2023/09/17 05:46:04;;;;;;;2.35;1.30;;;19.60;99.90;;;;;;5089925;28;20077;-83
2023/09/17 05:48:30;;;;;;;6.32;1.92;;;19.90;99.90;;;;;;5089998;28;20111;-84
2023/09/17 05:50:56;;;;;;;3.17;1.90;;;20.10;99.90;;;;;;5088940;28;20039;-84
2023/09/17 05:53:22;;;;;;;5.47;1.70;;;20.40;99.90;;;;;;5090159;28;20032;-83
2023/09/17 05:55:47;;;;;;;3.22;1.67;;;20.70;99.90;;;;;;5088804;28;20392;-83
2023/09/17 05:58:13;;;;;;;4.20;1.45;;;21.00;99.90;;;;;;5089828;28;20050;-85
2023/09/17 06:00:39;;;;;;;4.40;1.90;;;21.20;99.90;;;;;;5088618;28;20032;-84
2023/09/17 06:03:04;;;;;;;7.03;1.67;;;21.30;99.90;;;;;;5088678;28;20031;-84
2023/09/17 06:05:30;;;;;;;9.25;1.73;;;21.30;99.90;;;;;;5089459;28;20137;-84
2023/09/17 06:07:56;;;;;;;3.75;1.52;;;21.20;99.90;;;;;;5088485;28;20549;-84
2023/09/17 06:10:22;;;;;;;5.35;1.70;;;21.10;99.90;;;;;;5088181;28;20159;-83
2023/09/17 06:12:48;;;;;;;3.88;1.63;;;21.10;99.90;;;;;;5088502;28;20028;-83
2023/09/17 06:15:13;;;;;;;4.53;1.60;;;21.30;99.90;;;;;;5090133;28;20036;-84
2023/09/17 06:17:40;;;;;;;4.90;1.60;;;21.30;99.90;;;;;;5089894;28;20040;-84
2023/09/17 06:20:08;;;;;;;2.17;1.63;;;21.30;99.90;;;;;;5090876;28;20031;-84
2023/09/17 06:22:33;;;;;;;4.68;1.45;;;21.40;99.90;;;;;;5090402;28;20024;-84
2023/09/17 06:24:59;;;;;;;5.32;2.10;;;21.60;99.90;;;;;;5090040;28;20054;-84
2023/09/17 06:27:25;;;;;;;3.13;1.77;;;21.90;99.90;;;;;;5088867;28;20036;-84
2023/09/17 06:29:51;;;;;;;3.63;2.28;;;22.30;99.90;;;;;;5089648;28;20024;-82
2023/09/17 06:32:17;;;;;;;6.18;2.90;;;23.00;99.90;;;;;;5090828;28;20024;-85
2023/09/17 06:34:42;;;;;;;5.45;2.30;;;23.70;99.90;;;;;;5088594;28;20480;-83
2023/09/17 06:37:08;;;;;;;6.75;2.33;;;24.30;99.90;;;;;;5092542;28;20039;-83
2023/09/17 06:39:35;;;;;;;7.07;2.42;;;24.60;99.90;;;;;;5094311;28;20024;-83
2023/09/17 06:42:01;;;;;;;5.15;2.13;;;24.80;99.90;;;;;;5093664;28;20164;-84
2023/09/17 06:44:26;;;;;;;3.95;2.17;;;25.00;99.50;;;;;;5092971;28;20497;-84
2023/09/17 06:46:52;;;;;;;3.00;1.90;;;25.40;98.60;;;;;;5092783;28;20032;-83
2023/09/17 06:49:18;;;;;;;5.55;1.92;;;25.70;97.40;;;;;;5091839;28;20048;-84
2023/09/17 06:51:44;;;;;;;3.67;2.05;;;25.70;94.90;;;;;;5092045;28;20390;-84
2023/09/17 06:54:10;;;;;;;2.47;1.80;;;25.30;95.30;;;;;;5092357;28;20028;-82
2023/09/17 06:56:35;;;;;;;4.88;2.45;;;24.90;95.90;;;;;;5093129;28;20043;-83
2023/09/17 06:59:02;;;;;;;3.45;2.15;;;24.80;96.10;;;;;;5092822;28;20032;-81
2023/09/17 07:01:27;;;;;;;4.75;2.33;;;24.60;96.50;;;;;;5091040;28;20133;-82
2023/09/17 07:03:53;;;;;;;5.43;2.28;;;24.60;96.80;;;;;;5092950;28;20444;-84
2023/09/17 07:06:20;;;;;;;3.90;2.10;;;24.50;96.90;;;;;;5092039;28;20051;-84
2023/09/17 07:08:45;;;;;;;3.53;1.77;;;24.40;97.10;;;;;;5092809;28;20085;-85
2023/09/17 07:11:11;;;;;;;4.15;2.38;;;24.30;97.10;;;;;;5092645;28;20055;-83
2023/09/17 07:13:38;;;;;;;4.30;2.22;;;24.20;97.70;;;;;;5092719;28;20586;-84
2023/09/17 07:16:05;;;;;;;5.40;2.08;;;24.90;97.20;;;;;;5090514;28;20083;-84
2023/09/17 07:18:31;;;;;;;4.28;2.45;;;25.70;95.20;;;;;;5089606;28;20032;-84
2023/09/17 07:20:57;;;;;;;2.80;1.63;;;26.30;93.20;;;;;;5091510;28;20025;-84
2023/09/17 07:23:24;;;;;;;4.38;1.90;;;26.80;90.90;;;;;;5091287;28;20032;-83
2023/09/17 07:25:50;;;;;;;3.38;2.25;;;27.10;89.10;;;;;;5090155;28;20012;-82
2023/09/17 07:28:16;;;;;;;5.28;3.15;;;27.10;87.50;;;;;;5091894;28;20032;-83
2023/09/17 07:30:42;;;;;;;10.55;2.80;;;26.80;87.60;;;;;;5090251;28;20024;-83
2023/09/17 07:33:08;;;;;;;14.18;2.83;;;27.10;87.80;;;;;;5091474;28;20164;-83
2023/09/17 07:35:34;;;;;;;3.72;3.30;;;27.70;86.00;;;;;;5090378;28;20115;-81
2023/09/17 07:38:00;;;;;;;4.80;3.17;;;28.10;82.00;;;;;;5089916;28;20063;-81
2023/09/17 07:40:26;;;;;;;8.63;2.88;;;28.10;80.90;;;;;;5090160;28;20477;-80
2023/09/17 07:42:52;;;;;;;5.93;3.10;;;28.20;79.60;;;;;;5091289;28;20028;-79
2023/09/17 07:45:18;;;;;;;4.75;3.33;;;28.50;78.30;;;;;;5090156;28;20089;-80
2023/09/17 07:47:44;;;;;;;7.72;2.38;;;28.40;77.90;;;;;;5090268;28;20085;-80
2023/09/17 07:50:10;;;;;;;5.25;2.80;;;28.30;78.60;;;;;;5090576;28;20016;-82
2023/09/17 07:52:36;;;;;;;5.88;3.25;;;27.90;77.40;;;;;;5089961;28;20577;-83
2023/09/17 07:55:02;;;;;;;6.57;2.53;;;27.00;79.70;;;;;;5090107;28;20024;-82
2023/09/17 07:57:27;;;;;;;4.72;2.83;;;26.70;81.10;;;;;;5090579;28;20424;-84
2023/09/17 07:59:53;;;;;;;4.43;2.78;;;26.50;82.90;;;;;;5091235;28;20451;-84
2023/09/17 08:02:19;;;;;;;6.32;2.47;;;26.60;84.00;;;;;;5089720;28;20600;-83
2023/09/17 08:04:45;;;;;;;7.55;2.13;;;27.00;83.20;;;;;;5088854;28;20047;-84
2023/09/17 08:07:14;;;;;;;5.93;2.55;;;27.30;82.40;;;;;;5091712;28;20369;-84
2023/09/17 08:09:40;;;;;;;4.60;2.33;;;27.10;81.50;;;;;;5090731;28;20059;-83
2023/09/17 08:12:06;;;;;;;7.90;2.72;;;26.70;84.10;;;;;;5090487;28;20027;-84
2023/09/17 08:14:35;;;;;;;6.78;2.05;;;26.50;84.00;;;;;;5091180;28;20416;-86
2023/09/17 08:17:06;;;;;;;4.75;2.00;;;26.70;82.20;;;;;;5090926;28;20070;-86
2023/09/17 08:19:32;;;;;;;3.05;2.40;;;27.00;82.50;;;;;;5091053;28;20063;-85
2023/09/17 08:21:58;;;;;;;6.00;2.10;;;27.60;80.00;;;;;;5092038;28;20028;-86
2023/09/17 08:24:25;;;;;;;3.28;2.30;;;27.80;78.60;;;;;;5092168;28;20497;-86
2023/09/17 08:26:52;;;;;;;4.13;2.28;;;27.50;79.20;;;;;;5092307;28;20433;-86
2023/09/17 08:29:22;;;;;;;4.55;2.53;;;27.20;80.90;;;;;;5092208;28;20098;-87
2023/09/17 08:31:47;;;;;;;3.38;2.38;;;27.20;80.90;;;;;;5092113;28;20499;-86
2023/09/17 08:34:14;;;;;;;7.93;2.95;;;27.60;80.60;;;;;;5090949;28;20040;-86
2023/09/17 08:36:40;;;;;;;5.05;2.70;;;27.50;79.20;;;;;;5091834;28;20036;-86
2023/09/17 08:39:09;;;;;;;6.45;2.83;;;27.30;79.40;;;;;;5091750;28;20040;-87
2023/09/17 08:41:35;;;;;;;5.15;2.67;;;27.20;79.10;;;;;;5091051;28;20550;-86
2023/09/17 08:44:04;;;;;;;9.68;2.63;;;27.30;80.10;;;;;;5091337;28;20024;-83
2023/09/17 08:46:30;;;;;;;5.53;2.40;;;27.70;79.20;;;;;;5089797;28;20024;-85
2023/09/17 08:48:56;;;;;;;9.93;2.40;;;28.20;78.80;;;;;;5089998;28;20059;-84
2023/09/17 08:51:24;;;;;;;4.05;2.58;;;28.50;76.70;;;;;;5090658;28;20074;-83
2023/09/17 08:53:59;;;;;;;3.67;2.65;;;28.80;74.70;;;;;;5090792;28;20024;-82
2023/09/17 08:56:26;;;;;;;5.55;3.47;;;28.60;74.30;;;;;;5091888;28;20024;-83
2023/09/17 08:58:55;;;;;;;4.88;2.90;;;28.20;75.50;;;;;;5090230;28;20031;-81
2023/09/17 09:01:24;;;;;;;6.05;2.97;;;28.40;76.80;;;;;;5090359;28;20025;-82
2023/09/17 09:03:53;;;;;;;3.90;2.88;;;28.80;76.10;;;;;;5090427;28;20028;-80
2023/09/17 09:06:21;;;;;;;13.75;3.10;;;28.90;73.60;;;;;;5090820;28;20028;-80
2023/09/17 09:08:48;;;;;;;7.28;2.80;;;28.90;71.50;;;;;;5090079;28;20020;-80
2023/09/17 09:11:14;;;;;;;5.45;3.05;;;28.60;70.00;;;;;;5090400;28;20028;-79
2023/09/17 09:13:41;;;;;;;11.77;3.22;;;28.80;71.60;;;;;;5088764;28;20388;-79
2023/09/17 09:16:07;;;;;;;6.65;3.38;;;29.10;69.70;;;;;;5088532;28;20131;-80
2023/09/17 09:18:34;;;;;;;5.88;2.72;;;29.10;68.60;;;;;;5089669;28;20097;-79
2023/09/17 09:21:01;;;;;;;12.13;3.42;;;28.90;69.60;;;;;;5089878;28;20012;-82
2023/09/17 09:23:27;;;;;;;9.48;3.17;;;29.00;69.70;;;;;;5088684;28;20036;-80
2023/09/17 09:25:52;;;;;;;4.68;3.13;;;29.20;70.40;;;;;;5088414;28;20024;-80
2023/09/17 09:28:18;;;;;;;7.32;3.85;;;29.50;69.60;;;;;;5088519;28;20027;-81
2023/09/17 09:30:44;;;;;;;7.47;4.43;;;29.70;69.80;;;;;;5089488;28;20568;-80
2023/09/17 09:33:09;;;;;;;8.80;3.55;;;30.00;69.10;;;;;;5088560;28;20051;-80
2023/09/17 09:35:35;;;;;;;4.78;3.78;;;30.10;68.70;;;;;;5088273;28;20458;-80
2023/09/17 09:38:01;;;;;;;8.50;2.97;;;30.20;67.90;;;;;;5089414;28;20504;-80
2023/09/17 09:40:28;;;;;;;8.00;3.83;;;30.40;68.20;;;;;;5088420;28;20496;-81
2023/09/17 09:42:54;;;;;;;6.10;3.95;;;30.80;66.00;;;;;;5088687;28;20039;-82
2023/09/17 09:45:19;;;;;;;6.05;4.80;;;30.70;63.90;;;;;;5089435;28;20036;-81
2023/09/17 09:47:49;;;;;;;9.43;5.55;;;30.70;63.90;;;;;;5089592;28;20103;-80
2023/09/17 09:50:25;;;;;;;7.85;6.00;;;31.00;64.50;;;;;;5089654;28;20089;-84
2023/09/17 09:52:51;;;;;;;6.45;5.05;;;31.00;62.50;;;;;;5089801;28;20034;-82
2023/09/17 09:55:17;;;;;;;9.00;5.25;;;30.80;63.60;;;;;;5088152;28;20028;-82
2023/09/17 09:57:43;;;;;;;7.03;5.13;;;31.00;64.60;;;;;;5087941;28;20526;-83
2023/09/17 10:00:12;;;;;;;7.22;4.72;;;31.50;64.00;;;;;;5089612;28;20031;-82
2023/09/17 10:02:38;;;;;;;10.80;5.20;;;32.20;61.30;;;;;;5089153;28;20035;-82
2023/09/17 10:05:04;;;;;;;8.52;5.32;;;32.40;59.70;;;;;;5089153;28;20056;-80
2023/09/17 10:07:31;;;;;;;10.07;5.55;;;32.20;60.30;;;;;;5090339;28;20410;-83
2023/09/17 10:09:58;;;;;;;9.80;5.93;;;32.10;59.90;;;;;;5090235;28;20416;-82
2023/09/17 10:12:23;;;;;;;8.50;5.65;;;31.80;58.80;;;;;;5088449;28;20056;-83
2023/09/17 10:14:49;;;;;;;8.70;6.72;;;31.20;59.60;;;;;;5089179;28;20536;-81
2023/09/17 10:17:17;;;;;;;15.25;6.00;;;30.40;61.00;;;;;;5088691;28;20052;-83
2023/09/17 10:19:46;;;;;;;9.77;5.60;;;30.20;63.30;;;;;;5088983;28;20028;-82
2023/09/17 10:22:13;;;;;;;19.55;6.00;;;29.80;63.10;;;;;;5089269;28;20504;-82
2023/09/17 10:24:39;;;;;;;8.48;5.60;;;29.60;63.70;;;;;;5089056;28;20031;-82
2023/09/17 10:27:08;;;;;;;10.50;6.20;;;29.40;65.50;;;;;;5090126;28;20115;-84
2023/09/17 10:29:42;;;;;;;12.80;7.28;;;29.20;65.00;;;;;;5089453;28;20032;-82
2023/09/17 10:32:09;;;;;;;9.70;6.68;;;29.00;66.40;;;;;;5089275;28;20028;-82
2023/09/17 10:34:35;;;;;;;7.40;6.22;;;28.70;66.40;;;;;;5088770;28;20111;-83
2023/09/17 10:37:03;;;;;;;7.75;6.75;;;28.60;66.20;;;;;;5088835;28;20036;-82
2023/09/17 10:39:30;;;;;;;7.35;6.25;;;28.40;67.60;;;;;;5090088;28;20100;-81
2023/09/17 10:42:00;;;;;;;10.40;7.00;;;28.20;68.80;;;;;;5090064;28;20030;-81
2023/09/17 10:44:28;;;;;;;8.40;6.80;;;28.00;70.00;;;;;;5089568;28;20032;-82
2023/09/17 10:46:59;;;;;;;12.25;7.72;;;28.00;70.50;;;;;;5089811;28;20024;-82
2023/09/17 10:49:26;;;;;;;11.43;8.20;;;27.90;71.20;;;;;;5089756;28;20020;-82
2023/09/17 10:51:53;;;;;;;11.23;7.85;;;27.90;72.40;;;;;;5088489;28;20110;-82
2023/09/17 10:54:19;;;;;;;15.43;8.20;;;27.70;71.80;;;;;;5090025;28;20107;-81
2023/09/17 10:56:45;;;;;;;9.60;8.00;;;27.90;72.80;;;;;;5088456;28;20035;-81
2023/09/17 10:59:15;;;;;;;12.30;8.50;;;27.80;72.80;;;;;;5088688;28;20016;-81
2023/09/17 11:01:42;;;;;;;10.98;7.82;;;27.60;72.90;;;;;;5089767;28;20031;-81
2023/09/17 11:04:15;;;;;;;9.38;7.93;;;27.40;73.50;;;;;;5087476;28;20048;-83
2023/09/17 11:06:44;;;;;;;9.88;8.25;;;27.10;73.40;;;;;;5076507;28;20037;-82
2023/09/17 11:09:11;;;;;;;11.20;8.02;;;26.90;75.20;;;;;;5068817;28;20086;-82
2023/09/17 11:11:37;;;;;;;13.45;10.07;;;26.70;75.70;;;;;;5067756;28;20070;-82
2023/09/17 11:14:04;;;;;;;10.80;7.25;;;26.70;75.50;;;;;;5067536;28;20495;-82
2023/09/17 11:16:31;;;;;;;12.85;9.35;;;26.80;74.50;;;;;;5068501;28;20048;-82
2023/09/17 11:19:13;;;;;;;11.38;8.00;;;27.00;75.20;;;;;;5068932;28;20032;-83
2023/09/17 11:21:49;;;;;;;13.77;7.60;;;27.10;74.80;;;;;;5069264;28;20134;-83
2023/09/17 11:24:18;;;;;;;12.73;9.52;;;27.20;73.80;;;;;;5068328;28;20033;-80
2023/09/17 11:26:45;;;;;;;13.68;7.35;;;27.10;72.70;;;;;;5079485;28;20488;-81
2023/09/17 11:29:11;;;;;;;13.20;7.65;;;27.00;73.10;;;;;;5073687;28;20481;-83
2023/09/17 11:31:53;;;;;;;15.18;7.65;;;27.10;73.30;;;;;;5070999;28;20419;-82
2023/09/17 11:34:20;;;;;;;11.32;8.13;;;27.10;74.30;;;;;;5070836;28;20040;-83
2023/09/17 11:36:47;;;;;;;9.40;7.57;;;27.20;74.10;;;;;;5071872;28;20029;-83
2023/09/17 11:39:17;;;;;;;16.13;8.15;;;27.30;73.90;;;;;;5072110;28;20029;-82
2023/09/17 11:41:46;;;;;;;12.00;7.50;;;27.30;73.60;;;;;;5070998;28;20343;-82
2023/09/17 11:44:16;;;;;;;9.57;7.80;;;27.20;72.60;;;;;;5087575;28;20107;-83
2023/09/17 11:46:42;;;;;;;8.65;7.80;;;27.20;73.70;;;;;;5072044;28;20046;-83
2023/09/17 11:49:13;;;;;;;9.80;7.25;;;27.10;73.90;;;;;;5071897;28;20028;-83
2023/09/17 11:51:43;;;;;;;15.88;8.95;;;27.00;74.40;;;;;;5071969;28;20055;-82
2023/09/17 11:54:17;;;;;;;9.25;8.23;;;26.80;74.70;;;;;;5071964;28;20110;-83
2023/09/17 11:56:52;;;;;;;11.27;7.97;;;26.60;74.70;;;;;;5070850;28;20035;-82
2023/09/17 11:59:19;;;;;;;8.68;7.80;;;26.50;75.20;;;;;;5070523;28;20493;-82
2023/09/17 12:01:53;;;;;;;10.45;7.68;;;26.40;75.70;;;;;;5071689;28;20025;-82
2023/09/17 12:04:28;;;;;;;8.82;7.80;;;26.60;75.60;;;;;;5087525;28;20025;-82
2023/09/17 12:06:55;;;;;;;11.45;8.05;;;26.80;74.70;;;;;;5069982;28;20032;-83
2023/09/17 12:11:57;;;;;;;10.82;7.70;;;26.90;74.90;;;;;;5071974;28;20112;-84
2023/09/17 12:14:24;;;;;;;9.45;7.13;;;26.70;74.10;;;;;;5070337;28;20116;-83
2023/09/17 12:16:50;;;;;;;10.75;8.45;;;26.70;75.00;;;;;;5069604;28;20048;-83
2023/09/17 12:19:20;;;;;;;13.77;7.38;;;26.60;73.30;;;;;;5070304;28;20077;-83
2023/09/17 12:21:48;;;;;;;8.30;7.50;;;26.60;74.80;;;;;;5070072;28;20029;-83
2023/09/17 12:24:28;;;;;;;13.27;7.75;;;26.70;74.50;;;;;;5071416;28;20500;-83
2023/09/17 12:27:35;;;;;;;10.40;7.22;;;26.80;73.10;;;;;;5071533;28;20029;-82
2023/09/17 12:30:06;;;;;;;17.60;8.05;;;26.80;73.40;;;;;;5086691;28;20470;-82
2023/09/17 12:32:36;;;;;;;8.55;7.63;;;26.80;74.60;;;;;;5071319;28;20115;-82
2023/09/17 12:35:03;;;;;;;9.00;8.07;;;27.10;75.00;;;;;;5069278;28;20020;-83
2023/09/17 12:37:29;;;;;;;17.67;8.82;;;27.10;74.20;;;;;;5069565;28;20067;-83
2023/09/17 12:39:56;;;;;;;10.50;7.43;;;27.00;75.40;;;;;;5070770;28;20100;-82
2023/09/17 12:42:22;;;;;;;18.58;8.25;;;26.90;74.60;;;;;;5069467;28;20037;-82
2023/09/17 12:44:49;;;;;;;10.27;8.05;;;26.80;74.60;;;;;;5070930;28;20024;-83
2023/09/17 12:47:16;;;;;;;11.05;8.30;;;27.00;75.60;;;;;;5069409;28;20028;-83